Time;durP1;ratioP1;P1;durP2;ratioP2;P2;SDS_P1;SDS_P2;PMS_P1;PMS_P2;Temp;Humidity;BMP_temperature;BMP_pressure;BME280_temperature;BME280_humidity;BME280_pressure;Samples;Min_cycle;Max_cycle;Signal;HPM_P1;HPM_P2
2021/03/31 00:01:57;;;;;;;36.50;19.95;;;;;;;13.42;42.97;102429.25;4892479;28;113888;-72
2021/03/31 00:04:24;;;;;;;41.60;21.00;;;;;;;13.38;43.10;102422.28;4907808;28;124105;-73
2021/03/31 00:06:50;;;;;;;40.17;20.20;;;;;;;13.36;43.26;102414.34;4904622;28;124399;-72
2021/03/31 00:09:17;;;;;;;38.17;21.02;;;;;;;13.33;43.28;102413.56;4895475;28;114616;-72
2021/03/31 00:11:44;;;;;;;36.80;20.50;;;;;;;13.30;43.30;102409.22;4899895;28;114006;-72
2021/03/31 00:14:15;;;;;;;39.00;21.17;;;;;;;13.26;43.40;102402.22;4895522;28;123778;-72
2021/03/31 00:16:41;;;;;;;39.45;22.02;;;;;;;13.25;42.91;102400.47;4922704;28;124574;-72
2021/03/31 00:19:10;;;;;;;39.47;21.42;;;;;;;13.23;42.82;102404.97;4895368;28;113599;-72
2021/03/31 00:21:37;;;;;;;41.47;22.25;;;;;;;13.23;42.93;102397.84;4911689;28;115054;-72
2021/03/31 00:24:04;;;;;;;41.33;21.73;;;;;;;13.23;42.95;102402.31;4894821;28;124559;-72
2021/03/31 00:26:31;;;;;;;39.65;21.58;;;;;;;13.25;42.91;102405.78;4912064;28;124008;-72
2021/03/31 00:28:57;;;;;;;39.17;20.95;;;;;;;13.25;42.62;102389.84;4912210;28;115577;-72
2021/03/31 00:31:24;;;;;;;37.47;20.25;;;;;;;13.26;42.85;102391.59;4895189;28;114922;-73
2021/03/31 00:33:51;;;;;;;39.63;21.83;;;;;;;13.27;42.63;102382.66;4912548;28;124021;-72
2021/03/31 00:36:18;;;;;;;42.00;22.00;;;;;;;13.27;42.77;102385.31;4910685;28;124134;-72
2021/03/31 00:38:44;;;;;;;41.20;21.60;;;;;;;13.28;42.71;102383.53;4912494;28;113728;-72
2021/03/31 00:41:11;;;;;;;31.23;18.30;;;;;;;13.27;42.48;102382.66;4879012;28;112901;-72
2021/03/31 00:43:38;;;;;;;34.00;18.67;;;;;;;13.25;42.65;102379.19;4911871;28;124447;-72
2021/03/31 00:46:05;;;;;;;35.17;19.95;;;;;;;13.20;42.47;102370.47;4894069;28;122917;-72
2021/03/31 00:48:32;;;;;;;36.20;19.95;;;;;;;13.17;42.55;102375.91;4910851;28;114259;-72
2021/03/31 00:51:00;;;;;;;38.83;19.95;;;;;;;13.13;42.78;102369.81;4899372;28;112286;-72
2021/03/31 00:53:36;;;;;;;39.22;20.90;;;;;;;13.10;42.68;102359.25;4911791;28;124024;-72
2021/03/31 00:56:05;;;;;;;38.47;21.73;;;;;;;13.08;42.45;102361.09;4881842;28;124051;-72
2021/03/31 00:58:31;;;;;;;41.30;20.65;;;;;;;13.08;42.62;102354.91;4912668;28;114848;-72
2021/03/31 01:00:58;;;;;;;42.95;20.65;;;;;;;13.07;42.66;102358.47;4912252;28;114288;-72
2021/03/31 01:03:25;;;;;;;37.65;21.35;;;;;;;13.08;42.38;102354.91;4894281;28;123648;-72
2021/03/31 01:05:52;;;;;;;37.25;21.15;;;;;;;13.08;42.54;102350.47;4893413;28;123231;-72
2021/03/31 01:08:19;;;;;;;36.08;20.55;;;;;;;13.09;42.27;102351.31;4894291;28;114111;-72
2021/03/31 01:10:48;;;;;;;33.75;19.58;;;;;;;13.08;42.25;102349.59;4914710;28;114652;-72
2021/03/31 01:14:00;;;;;;;34.78;18.70;;;;;;;13.02;42.23;102343.53;4891325;28;123188;-72
2021/03/31 01:16:45;;;;;;;36.97;20.55;;;;;;;12.97;42.37;102337.47;4876326;28;124149;-72
2021/03/31 01:19:30;;;;;;;40.70;22.05;;;;;;;12.93;42.67;102338.50;4885622;28;115067;-72
2021/03/31 01:22:07;;;;;;;37.50;21.97;;;;;;;12.91;42.40;102329.69;4892489;28;114855;-72
2021/03/31 01:24:55;;;;;;;42.58;23.27;;;;;;;12.92;42.39;102334.13;4911011;28;124769;-72
2021/03/31 01:27:28;;;;;;;37.75;21.77;;;;;;;12.90;42.23;102335.94;4883798;28;124131;-72
2021/03/31 01:30:11;;;;;;;29.88;17.58;;;;;;;12.86;42.35;102339.59;4905633;28;114264;-72
2021/03/31 01:33:10;;;;;;;35.10;17.65;;;;;;;12.81;42.37;102336.25;4893521;28;113312;-72
2021/03/31 01:35:40;;;;;;;30.77;18.00;;;;;;;12.72;42.70;102336.50;4909624;28;126488;-72
2021/03/31 01:38:10;;;;;;;36.40;19.55;;;;;;;12.65;42.96;102330.50;4910986;28;124461;-72
2021/03/31 01:40:47;;;;;;;33.17;19.38;;;;;;;12.58;42.80;102331.59;4911936;28;114240;-72
2021/03/31 01:43:17;;;;;;;35.03;19.70;;;;;;;12.53;42.94;102331.72;4874898;28;114102;-72
2021/03/31 01:45:50;;;;;;;36.42;20.55;;;;;;;12.49;43.17;102326.53;4907173;28;124732;-72
2021/03/31 01:48:19;;;;;;;38.10;20.85;;;;;;;12.48;43.17;102323.00;4892587;28;122856;-72
2021/03/31 01:50:52;;;;;;;38.10;21.15;;;;;;;12.47;43.19;102321.28;4901320;28;114427;-72
2021/03/31 01:53:19;;;;;;;40.00;20.60;;;;;;;12.46;43.50;102319.53;4892741;28;114806;-71
2021/03/31 01:55:51;;;;;;;35.90;21.27;;;;;;;12.44;43.57;102318.72;4893017;28;122875;-71
2021/03/31 01:58:20;;;;;;;38.38;20.88;;;;;;;12.45;43.79;102317.78;4914077;28;124253;-71
2021/03/31 02:00:48;;;;;;;41.47;21.40;;;;;;;12.45;43.31;102317.78;4897874;28;114897;-71
2021/03/31 02:03:17;;;;;;;41.88;21.83;;;;;;;12.42;43.68;102308.13;4894692;28;113973;-71
2021/03/31 02:05:45;;;;;;;37.67;21.40;;;;;;;12.42;43.52;102312.56;4900781;28;124462;-72
2021/03/31 02:08:13;;;;;;;41.67;22.58;;;;;;;12.40;43.62;102306.44;4897642;28;123962;-71
2021/03/31 02:10:43;;;;;;;41.65;22.48;;;;;;;12.38;43.67;102306.47;4896728;28;115471;-71
2021/03/31 02:13:11;;;;;;;39.83;21.30;;;;;;;12.35;43.46;102311.00;4914937;28;115526;-72
2021/03/31 02:15:41;;;;;;;39.45;22.30;;;;;;;12.33;43.27;102312.84;4896142;28;124039;-71
2021/03/31 02:18:12;;;;;;;38.45;22.20;;;;;;;12.30;43.57;102308.50;4897917;28;123908;-71
2021/03/31 02:20:38;;;;;;;42.47;23.13;;;;;;;12.26;43.38;102302.41;4896877;28;113370;-72
2021/03/31 02:23:06;;;;;;;43.88;22.63;;;;;;;12.23;43.51;102305.13;4897324;28;114582;-71
2021/03/31 02:25:33;;;;;;;46.83;24.02;;;;;;;12.21;43.62;102308.75;4913042;28;124935;-71
2021/03/31 02:28:01;;;;;;;41.85;23.25;;;;;;;12.16;43.45;102300.91;4897206;28;122872;-71
2021/03/31 02:30:29;;;;;;;43.25;23.02;;;;;;;12.14;43.75;102292.09;4915434;28;114597;-71
2021/03/31 02:33:03;;;;;;;42.13;22.88;;;;;;;12.11;43.96;102292.22;4899764;28;113489;-72
2021/03/31 02:35:31;;;;;;;47.20;23.80;;;;;;;12.09;43.56;102283.38;4897587;28;123015;-72
2021/03/31 02:38:06;;;;;;;44.40;22.98;;;;;;;12.10;43.46;102290.47;4913172;28;123688;-72
2021/03/31 02:40:34;;;;;;;40.90;23.83;;;;;;;12.11;43.47;102281.59;4895303;28;114022;-72
2021/03/31 02:43:01;;;;;;;41.60;23.45;;;;;;;12.11;43.61;102281.59;4896746;28;112636;-71
2021/03/31 02:45:30;;;;;;;39.67;23.48;;;;;;;12.11;43.69;102270.97;4906659;28;123867;-71
2021/03/31 02:48:00;;;;;;;45.17;23.10;;;;;;;12.10;43.67;102279.84;4893608;28;123854;-71
2021/03/31 02:50:29;;;;;;;42.90;23.40;;;;;;;12.09;43.67;102267.47;4900168;28;113307;-71
2021/03/31 02:52:57;;;;;;;45.88;23.63;;;;;;;12.06;43.51;102263.13;4922475;28;113738;-71
2021/03/31 02:55:25;;;;;;;42.17;23.45;;;;;;;12.05;43.50;102271.13;4891515;28;123806;-71
2021/03/31 02:57:55;;;;;;;44.80;24.20;;;;;;;12.04;43.68;102264.09;4903661;28;123880;-71
2021/03/31 03:00:22;;;;;;;40.92;23.27;;;;;;;12.04;43.51;102269.41;4909480;28;114809;-72
2021/03/31 03:02:50;;;;;;;42.30;23.13;;;;;;;12.04;43.82;102266.75;4880737;28;113789;-71
2021/03/31 03:05:18;;;;;;;43.78;23.45;;;;;;;12.03;43.53;102262.31;4912645;28;124115;-71
2021/03/31 03:07:46;;;;;;;34.67;20.17;;;;;;;12.01;43.65;102269.47;4911117;28;125356;-71
2021/03/31 03:10:14;;;;;;;41.00;20.90;;;;;;;11.97;44.00;102267.81;4914063;28;114993;-71
2021/03/31 03:12:50;;;;;;;42.00;21.50;;;;;;;11.92;43.79;102264.41;4909315;28;114032;-71
2021/03/31 03:15:19;;;;;;;38.00;20.05;;;;;;;11.87;43.85;102262.72;4908246;28;124366;-72
2021/03/31 03:17:47;;;;;;;36.05;20.52;;;;;;;11.84;43.68;102268.09;4896661;28;122754;-72
2021/03/31 03:20:14;;;;;;;39.67;21.85;;;;;;;11.82;44.10;102264.63;4881236;28;113218;-71
2021/03/31 03:22:44;;;;;;;36.92;21.45;;;;;;;11.78;44.19;102268.28;4926689;22;114439;-68
2021/03/31 03:25:11;;;;;;;42.47;23.88;;;;;;;11.75;43.92;102263.06;4898775;28;123049;-68
2021/03/31 03:27:41;;;;;;;44.70;22.85;;;;;;;11.72;44.36;102263.16;4917885;28;123910;-68
2021/03/31 03:30:12;;;;;;;43.40;21.77;;;;;;;11.69;44.17;102257.91;4915060;28;115349;-68
2021/03/31 03:32:41;;;;;;;40.15;19.60;;;;;;;11.65;44.13;102256.25;4909269;28;113842;-68
2021/03/31 03:35:10;;;;;;;39.00;21.65;;;;;;;11.59;44.22;102256.44;4915106;28;124133;-68
2021/03/31 03:37:38;;;;;;;40.47;22.13;;;;;;;11.54;44.34;102253.88;4897304;28;122977;-68
2021/03/31 03:40:05;;;;;;;42.45;23.20;;;;;;;11.49;44.59;102251.38;4896987;28;113859;-69
2021/03/31 03:42:32;;;;;;;40.63;22.60;;;;;;;11.45;44.66;102249.72;4916341;28;114190;-68
2021/03/31 03:45:02;;;;;;;46.38;23.77;;;;;;;11.44;44.55;102247.97;4899750;28;122634;-68
2021/03/31 03:47:29;;;;;;;43.03;23.35;;;;;;;11.43;44.72;102248.88;4916117;28;123080;-68
2021/03/31 03:49:58;;;;;;;40.45;22.20;;;;;;;11.43;44.93;102251.53;4916814;28;115489;-68
2021/03/31 03:52:25;;;;;;;40.40;21.92;;;;;;;11.44;44.61;102247.97;4898875;28;114315;-68
2021/03/31 03:54:53;;;;;;;37.83;23.02;;;;;;;11.45;44.89;102247.06;4897365;28;123822;-68
2021/03/31 03:57:28;;;;;;;41.47;22.10;;;;;;;11.43;44.81;102254.19;4895505;28;124061;-67
2021/03/31 03:59:55;;;;;;;43.13;23.15;;;;;;;11.42;44.69;102247.13;4914125;28;114292;-68
2021/03/31 04:02:22;;;;;;;40.38;21.92;;;;;;;11.42;44.89;102247.13;4896233;28;113423;-68
2021/03/31 04:04:49;;;;;;;39.72;21.10;;;;;;;11.40;44.56;102246.31;4913739;28;123810;-68
2021/03/31 04:07:35;;;;;;;39.92;21.35;;;;;;;11.38;44.55;102248.13;4912850;28;123972;-68
2021/03/31 04:10:04;;;;;;;38.50;20.20;;;;;;;11.36;44.74;102249.94;4914124;28;114059;-67
2021/03/31 04:12:32;;;;;;;40.42;20.67;;;;;;;11.31;44.78;102251.84;4895522;28;113515;-68
2021/03/31 04:14:59;;;;;;;37.03;19.35;;;;;;;11.26;44.93;102248.41;4911961;28;124006;-68
2021/03/31 04:17:27;;;;;;;41.10;19.58;;;;;;;11.20;44.98;102253.88;4893259;28;123363;-68
2021/03/31 04:19:54;;;;;;;48.83;20.02;;;;;;;11.15;45.27;102250.47;4895753;28;113539;-68
2021/03/31 04:22:21;;;;;;;42.17;20.88;;;;;;;11.10;45.29;102248.81;4909892;28;114531;-68
2021/03/31 04:24:48;;;;;;;38.58;19.70;;;;;;;11.06;45.43;102247.16;4912395;28;124506;-68
2021/03/31 04:27:17;;;;;;;36.47;19.15;;;;;;;11.02;45.33;102237.53;4895352;28;124075;-68
2021/03/31 04:29:46;;;;;;;35.75;19.17;;;;;;;10.97;45.28;102242.06;4912895;28;114357;-68
2021/03/31 04:32:15;;;;;;;40.05;18.92;;;;;;;10.93;45.36;102240.41;4913299;28;114361;-68
2021/03/31 04:34:44;;;;;;;40.60;18.42;;;;;;;10.90;45.71;102236.03;4894966;28;123988;-68
2021/03/31 04:37:13;;;;;;;41.60;19.38;;;;;;;10.89;45.65;102244.91;4912339;28;124160;-67
2021/03/31 04:39:41;;;;;;;51.75;20.17;;;;;;;10.88;45.85;102234.34;4879330;28;114549;-66
2021/03/31 04:42:09;;;;;;;46.38;18.85;;;;;;;10.86;45.87;102244.09;4913339;28;114893;-67
2021/03/31 04:44:35;;;;;;;49.15;19.45;;;;;;;10.84;45.94;102245.91;4912612;28;124833;-67
2021/03/31 04:47:03;;;;;;;42.08;19.10;;;;;;;10.81;45.78;102235.38;4911527;28;125376;-67
2021/03/31 04:49:29;;;;;;;48.30;19.98;;;;;;;10.80;46.08;102244.25;4913034;28;114700;-67
2021/03/31 04:51:56;;;;;;;47.97;19.88;;;;;;;10.78;46.16;102240.78;4912741;28;114748;-67
2021/03/31 04:54:23;;;;;;;44.75;20.52;;;;;;;10.78;46.07;102240.78;4894968;28;123759;-67
2021/03/31 04:56:49;;;;;;;49.08;20.20;;;;;;;10.76;46.35;102240.81;4911866;28;124621;-67
2021/03/31 04:59:16;;;;;;;39.15;19.02;;;;;;;10.75;46.39;102241.69;4912905;28;114609;-67
2021/03/31 05:01:43;;;;;;;38.00;19.55;;;;;;;10.75;46.34;102240.84;4894659;28;113502;-67
2021/03/31 05:04:09;;;;;;;34.47;19.50;;;;;;;10.74;46.38;102236.44;4911574;28;124880;-67
2021/03/31 05:06:36;;;;;;;39.10;19.27;;;;;;;10.73;46.09;102238.22;4909047;28;123535;-68
2021/03/31 05:09:04;;;;;;;32.75;19.50;;;;;;;10.75;46.36;102235.53;4909693;28;114334;-67
2021/03/31 05:11:35;;;;;;;41.63;18.80;;;;;;;10.75;46.30;102233.75;4909169;28;114465;-67
2021/03/31 05:14:03;;;;;;;36.38;19.25;;;;;;;10.76;46.45;102232.00;4894014;28;124719;-67
2021/03/31 05:16:29;;;;;;;36.92;18.98;;;;;;;10.75;46.60;102230.22;4894568;28;123204;-67
2021/03/31 05:18:56;;;;;;;31.85;18.60;;;;;;;10.74;46.44;102231.13;4912462;28;114599;-67
2021/03/31 05:21:23;;;;;;;35.88;19.13;;;;;;;10.75;46.40;102230.22;4913974;28;114196;-68
2021/03/31 05:23:49;;;;;;;38.72;19.08;;;;;;;10.74;46.30;102225.81;4894404;28;123801;-68
2021/03/31 05:26:17;;;;;;;33.63;18.35;;;;;;;10.74;46.42;102228.47;4894272;28;123244;-67
2021/03/31 05:28:44;;;;;;;35.67;18.40;;;;;;;10.75;46.61;102235.53;4911890;28;115347;-68
2021/03/31 05:31:11;;;;;;;40.72;20.13;;;;;;;10.74;46.39;102228.47;4912063;28;115770;-68
2021/03/31 05:33:37;;;;;;;37.85;19.83;;;;;;;10.71;46.47;102225.00;4909548;28;123389;-68
2021/03/31 05:36:05;;;;;;;36.65;19.45;;;;;;;10.71;46.83;102225.00;4893954;28;123030;-68
2021/03/31 05:38:32;;;;;;;31.95;17.88;;;;;;;10.71;46.42;102224.13;4894114;28;113883;-68
2021/03/31 05:40:59;;;;;;;33.78;18.58;;;;;;;10.69;46.62;102221.50;4912720;28;114179;-69
2021/03/31 05:43:26;;;;;;;34.38;19.75;;;;;;;10.67;46.50;102218.03;4893799;28;123199;-68
2021/03/31 05:45:54;;;;;;;29.83;18.13;;;;;;;10.65;46.37;102225.16;4911846;28;124546;-68
2021/03/31 05:48:23;;;;;;;40.80;18.63;;;;;;;10.62;46.64;102219.91;4894035;28;113285;-68
2021/03/31 05:50:50;;;;;;;33.78;17.90;;;;;;;10.61;46.82;102226.13;4879377;28;113900;-68
2021/03/31 05:53:17;;;;;;;33.70;19.10;;;;;;;10.61;46.93;102223.47;4896068;28;125117;-68
2021/03/31 05:55:44;;;;;;;42.40;19.17;;;;;;;10.60;47.30;102216.41;4911352;28;124019;-69
2021/03/31 05:58:11;;;;;;;38.60;19.23;;;;;;;10.62;47.01;102209.31;4895912;28;114524;-68
2021/03/31 06:00:38;;;;;;;35.17;18.45;;;;;;;10.63;47.18;102211.06;4912012;28;113924;-68
2021/03/31 06:03:06;;;;;;;35.80;19.25;;;;;;;10.63;47.36;102205.75;4893923;28;123193;-67
2021/03/31 06:05:33;;;;;;;43.10;19.10;;;;;;;10.65;47.35;102206.59;4893716;28;124018;-67
2021/03/31 06:08:03;;;;;;;36.13;18.95;;;;;;;10.69;47.60;102205.63;4894611;28;113464;-68
2021/03/31 06:10:30;;;;;;;38.03;19.10;;;;;;;10.75;47.21;102214.34;4911581;28;114385;-67
2021/03/31 06:13:03;;;;;;;38.50;18.85;;;;;;;10.77;47.47;102217.81;4911045;28;124134;-68
2021/03/31 06:15:42;;;;;;;34.08;18.52;;;;;;;10.80;47.64;102215.09;4891406;28;123854;-67
2021/03/31 06:18:32;;;;;;;47.00;19.08;;;;;;;10.84;47.88;102216.78;4911744;28;116043;-67
2021/03/31 06:21:00;;;;;;;36.53;18.08;;;;;;;10.90;47.51;102214.81;4874295;28;114664;-68
2021/03/31 06:26:28;;;;;;;39.30;18.42;;;;;;;11.14;48.14;102216.94;4910455;28;123680;-67
2021/03/31 06:29:00;;;;;;;35.83;18.30;;;;;;;11.30;48.51;102218.25;4911595;28;114600;-67
2021/03/31 06:31:49;;;;;;;33.00;17.33;;;;;;;11.48;48.35;102217.78;4908475;28;114748;-68
2021/03/31 06:34:18;;;;;;;31.17;18.33;;;;;;;11.64;48.56;102212.03;4893947;28;123827;-67
2021/03/31 06:36:59;;;;;;;40.83;18.30;;;;;;;11.83;48.58;102212.44;4893013;28;124242;-67
2021/03/31 06:39:31;;;;;;;32.45;18.02;;;;;;;12.04;48.15;102216.28;4894054;28;114361;-67
2021/03/31 06:42:02;;;;;;;40.85;18.17;;;;;;;12.22;48.10;102215.75;4911446;28;115044;-68
2021/03/31 06:49:38;;;;;;;30.02;18.20;;;;;;;12.86;48.73;102209.31;4914679;28;114643;-68
2021/03/31 06:52:06;;;;;;;29.92;17.52;;;;;;;13.12;48.41;102204.94;4914017;28;114039;-68
2021/03/31 06:54:44;;;;;;;30.75;17.17;;;;;;;13.39;48.29;102211.13;4897221;28;124248;-68
2021/03/31 06:57:23;;;;;;;34.00;18.75;;;;;;;13.65;48.12;102202.19;4879696;28;123593;-68
2021/03/31 06:59:57;;;;;;;35.00;18.35;;;;;;;13.95;48.12;102204.66;4897336;28;113767;-68
2021/03/31 07:02:26;;;;;;;31.13;16.60;;;;;;;14.23;47.68;102203.63;4897013;28;113484;-68
2021/03/31 07:04:53;;;;;;;24.27;15.40;;;;;;;14.48;47.23;102193.72;4896118;28;123185;-68
2021/03/31 07:07:29;;;;;;;29.90;15.18;;;;;;;14.73;46.69;102193.66;4896143;28;122703;-68
2021/03/31 07:10:07;;;;;;;24.70;15.10;;;;;;;14.97;46.17;102191.78;4895641;28;115916;-68
2021/03/31 07:12:51;;;;;;;27.73;15.20;;;;;;;15.21;45.88;102194.34;4913071;28;115063;-68
2021/03/31 07:15:21;;;;;;;24.73;14.25;;;;;;;15.45;45.01;102194.22;4895589;28;123519;-68
2021/03/31 07:17:53;;;;;;;24.85;15.00;;;;;;;15.64;45.05;102192.44;4884382;28;122795;-69
2021/03/31 07:20:25;;;;;;;26.70;14.10;;;;;;;15.85;44.64;102197.78;4912732;28;114821;-68
2021/03/31 07:22:53;;;;;;;25.80;13.52;;;;;;;16.04;43.99;102187.13;4912320;28;114489;-68
2021/03/31 07:25:22;;;;;;;28.23;14.40;;;;;;;16.21;43.92;102181.00;4913120;28;124285;-68
2021/03/31 07:27:50;;;;;;;26.38;14.27;;;;;;;16.37;43.27;102192.69;4913356;28;124246;-68
2021/03/31 07:30:21;;;;;;;23.48;14.60;;;;;;;16.49;43.38;102191.22;4896196;28;113074;-68
2021/03/31 07:33:16;;;;;;;22.48;14.20;;;;;;;16.65;42.98;102188.66;4882719;28;113354;-69
2021/03/31 07:35:43;;;;;;;;;;;;;;;16.78;43.28;102192.47;4912563;28;123963;-68
2021/03/31 07:38:13;;;;;;;24.52;14.13;;;;;;;16.93;42.61;102191.75;4898048;28;123869;-68
2021/03/31 07:40:41;;;;;;;25.02;13.65;;;;;;;17.04;42.45;102187.66;4893651;28;116034;-68
2021/03/31 07:43:15;;;;;;;22.90;14.38;;;;;;;17.14;42.21;102188.94;4899213;28;113896;-68
2021/03/31 07:45:56;;;;;;;22.08;14.27;;;;;;;17.21;42.21;102195.69;4910005;28;124171;-68
2021/03/31 07:48:23;;;;;;;24.50;14.57;;;;;;;17.31;42.18;102190.75;4891602;28;122951;-69
2021/03/31 07:50:50;;;;;;;23.92;14.13;;;;;;;17.41;42.30;102189.31;4896385;28;114755;-69
2021/03/31 07:53:22;;;;;;;23.73;13.68;;;;;;;17.51;41.67;102187.00;4911722;28;113982;-68
2021/03/31 07:55:50;;;;;;;21.15;14.30;;;;;;;17.57;41.32;102184.00;4911804;28;124033;-68
2021/03/31 07:58:30;;;;;;;22.67;13.98;;;;;;;17.62;41.74;102179.25;4913225;28;124135;-68
2021/03/31 08:01:03;;;;;;;23.50;13.20;;;;;;;17.75;41.25;102189.34;4911427;28;115459;-68
2021/03/31 08:03:34;;;;;;;22.73;13.88;;;;;;;17.90;41.13;102186.72;4912889;28;115259;-69
2021/03/31 08:06:06;;;;;;;22.55;13.30;;;;;;;18.09;40.78;102183.03;4895123;28;124637;-68
2021/03/31 08:08:34;;;;;;;19.67;13.27;;;;;;;18.27;40.26;102181.13;4909832;28;124605;-68
2021/03/31 08:11:01;;;;;;;18.42;12.68;;;;;;;18.45;39.92;102174.72;4913449;28;114329;-69
2021/03/31 08:13:29;;;;;;;22.00;12.98;;;;;;;18.62;39.99;102180.94;4912796;28;113975;-68
2021/03/31 08:15:57;;;;;;;19.13;12.80;;;;;;;18.82;40.02;102185.19;4895370;28;124093;-69
2021/03/31 08:18:25;;;;;;;20.95;12.73;;;;;;;19.00;39.24;102183.22;4913246;28;124150;-68
2021/03/31 08:20:53;;;;;;;20.60;12.90;;;;;;;19.15;39.13;102185.00;4895483;28;114727;-68
2021/03/31 08:23:41;;;;;;;23.50;13.25;;;;;;;19.31;38.62;102189.44;4895776;28;112780;-69
2021/03/31 08:26:41;;;;;;;17.77;12.35;;;;;;;19.44;38.68;102190.44;4892122;28;123385;-68
2021/03/31 08:29:19;;;;;;;22.98;12.98;;;;;;;19.60;38.80;102187.69;4899749;28;123702;-68
2021/03/31 08:31:55;;;;;;;23.30;13.07;;;;;;;19.75;38.80;102183.19;4911432;28;114708;-68
2021/03/31 08:34:29;;;;;;;21.42;13.40;;;;;;;19.89;38.78;102179.63;4894613;28;114566;-68
2021/03/31 08:36:57;;;;;;;19.73;13.88;;;;;;;20.05;38.97;102190.31;4910384;28;124612;-69
2021/03/31 08:39:24;;;;;;;25.02;14.18;;;;;;;20.18;39.11;102191.25;4912988;28;124092;-68
2021/03/31 08:41:55;;;;;;;20.42;13.18;;;;;;;20.32;38.94;102193.88;4892588;28;114246;-68
2021/03/31 08:44:31;;;;;;;21.17;13.00;;;;;;;20.43;37.84;102179.75;4910170;28;114305;-68
2021/03/31 08:47:08;;;;;;;18.85;12.48;;;;;;;20.57;37.65;102173.47;4879361;28;123440;-69
2021/03/31 08:49:41;;;;;;;18.58;12.30;;;;;;;20.73;37.14;102176.88;4912138;28;124509;-69
2021/03/31 08:52:13;;;;;;;23.02;13.60;;;;;;;20.88;37.20;102179.53;4890890;28;114143;-68
2021/03/31 08:54:43;;;;;;;19.63;13.00;;;;;;;21.04;37.25;102174.84;4878290;28;114242;-69
2021/03/31 08:57:14;;;;;;;17.40;12.18;;;;;;;21.17;36.11;102170.31;4907481;28;124594;-69
2021/03/31 08:59:44;;;;;;;23.00;12.88;;;;;;;21.33;36.58;102171.94;4912218;28;123820;-68
2021/03/31 09:02:12;;;;;;;18.73;13.10;;;;;;;21.45;36.48;102168.41;4907135;28;114370;-68
2021/03/31 09:05:00;;;;;;;21.52;13.25;;;;;;;21.56;36.70;102165.81;4894304;28;112703;-68
2021/03/31 09:07:27;;;;;;;23.80;12.95;;;;;;;21.66;36.51;102160.66;4913066;28;124595;-68
2021/03/31 09:09:54;;;;;;;19.02;12.80;;;;;;;21.74;36.35;102157.41;4895476;28;122139;-68
2021/03/31 09:12:24;;;;;;;17.83;11.95;;;;;;;21.85;36.05;102160.22;4915704;28;114912;-68
2021/03/31 09:14:56;;;;;;;20.13;12.20;;;;;;;21.96;35.42;102157.59;4893350;28;114714;-69
2021/03/31 09:17:27;;;;;;;17.88;11.60;;;;;;;22.11;35.02;102154.75;4894161;28;124073;-68
2021/03/31 09:19:57;;;;;;;24.08;12.20;;;;;;;22.25;34.70;102148.34;4910677;28;124045;-69
2021/03/31 09:22:33;;;;;;;16.98;11.02;;;;;;;22.38;34.65;102140.22;4896798;28;96918;-68
2021/03/31 09:25:00;;;;;;;;;;;;;;;22.50;35.58;102147.41;4909285;28;113869;-72
2021/03/31 09:27:47;;;;;;;15.02;10.20;;;;;;;22.67;34.28;102138.88;4908452;28;124691;-72
2021/03/31 09:30:16;;;;;;;15.57;10.52;;;;;;;22.82;33.81;102133.31;4908205;28;122662;-72
2021/03/31 09:33:00;;;;;;;15.73;10.38;;;;;;;22.96;33.77;102135.78;4909576;28;114182;-72
2021/03/31 09:35:28;;;;;;;16.73;10.85;;;;;;;23.12;33.81;102136.34;4909264;28;114108;-73
2021/03/31 09:37:57;;;;;;;14.30;10.32;;;;;;;23.25;32.70;102140.81;4894561;28;123599;-72
2021/03/31 09:40:37;;;;;;;18.20;10.60;;;;;;;23.37;32.11;102139.84;4910458;28;124365;-72
2021/03/31 09:43:08;;;;;;;16.20;10.18;;;;;;;23.50;31.75;102135.19;4908725;28;115045;-72
2021/03/31 09:45:35;;;;;;;22.48;13.55;;;;;;;23.64;32.27;102130.50;4910848;28;114953;-72
2021/03/31 09:48:03;;;;;;;25.80;14.82;;;;;;;23.72;32.37;102130.78;4911876;28;124860;-72
2021/03/31 09:50:33;;;;;;;21.73;15.32;;;;;;;23.79;31.77;102129.34;4894235;28;123714;-72
2021/03/31 09:53:04;;;;;;;22.88;13.77;;;;;;;23.83;31.76;102136.22;4894658;28;113512;-72
2021/03/31 09:55:31;;;;;;;17.75;13.50;;;;;;;23.94;32.05;102132.63;4892857;28;114160;-72
2021/03/31 09:58:02;;;;;;;20.25;14.30;;;;;;;24.04;31.98;102124.63;4911283;28;124445;-73
2021/03/31 10:00:34;;;;;;;23.75;13.43;;;;;;;24.12;31.62;102124.84;4908635;28;124056;-73
2021/03/31 10:03:02;;;;;;;20.70;14.30;;;;;;;24.20;31.50;102116.94;4892263;28;114918;-72
2021/03/31 10:05:28;;;;;;;22.88;14.20;;;;;;;24.27;31.33;102112.72;4900434;28;114921;-72
2021/03/31 10:08:10;;;;;;;23.45;14.35;;;;;;;24.29;30.94;102109.91;4910902;28;124008;-72
2021/03/31 10:10:55;;;;;;;18.90;13.30;;;;;;;24.33;31.00;102110.50;4911413;28;124348;-72
2021/03/31 10:13:25;;;;;;;20.75;13.10;;;;;;;24.40;30.97;102109.88;4909767;28;113086;-73
2021/03/31 10:16:00;;;;;;;24.60;14.75;;;;;;;24.47;31.18;102104.81;4893842;28;113480;-72
2021/03/31 10:18:29;;;;;;;19.73;14.32;;;;;;;24.57;31.22;102108.47;4895601;28;123371;-72
2021/03/31 10:20:58;;;;;;;20.33;14.32;;;;;;;24.64;30.80;102109.69;4881691;28;123952;-73
2021/03/31 10:23:31;;;;;;;25.00;14.65;;;;;;;24.72;30.84;102100.06;4912832;28;113507;-72
2021/03/31 10:26:23;;;;;;;19.60;14.38;;;;;;;24.79;31.23;102090.38;4913110;28;114217;-72
2021/03/31 10:28:53;;;;;;;20.73;13.10;;;;;;;24.92;30.65;102096.50;4899492;28;124386;-72
2021/03/31 10:31:42;;;;;;;19.60;14.82;;;;;;;25.05;30.85;102097.13;4911882;28;123134;-73
2021/03/31 10:34:15;;;;;;;22.55;13.90;;;;;;;25.19;30.50;102086.94;4897020;28;114902;-73
2021/03/31 10:37:05;;;;;;;16.08;13.10;;;;;;;25.32;30.08;102090.31;4896293;28;114732;-72
2021/03/31 10:51:22;;;;;;;17.65;13.55;;;;;;;26.02;29.42;102079.59;4904518;28;123631;-73
2021/03/31 10:56:18;;;;;;;18.98;13.27;;;;;;;26.07;28.93;102071.88;4913625;28;113393;-72
2021/03/31 10:58:44;;;;;;;18.02;13.30;;;;;;;26.12;29.22;102069.56;4896823;28;113264;-73
2021/03/31 11:01:11;;;;;;;18.63;13.18;;;;;;;26.19;29.07;102070.72;4913649;28;123810;-73
2021/03/31 11:03:38;;;;;;;17.95;13.07;;;;;;;26.29;28.69;102069.88;4914414;28;124194;-72
2021/03/31 11:06:06;;;;;;;19.92;13.75;;;;;;;26.39;28.31;102065.28;4892415;28;115110;-73
2021/03/31 11:08:32;;;;;;;19.83;14.40;;;;;;;26.47;28.28;102065.47;4869341;28;113637;-73
2021/03/31 11:10:59;;;;;;;23.55;14.40;;;;;;;26.54;28.31;102063.00;4896665;28;124136;-72
2021/03/31 11:13:29;;;;;;;18.00;13.95;;;;;;;26.61;27.94;102065.03;4900646;28;125022;-73
2021/03/31 11:15:56;;;;;;;20.85;13.93;;;;;;;26.69;27.51;102055.31;4913205;28;114133;-73
2021/03/31 11:18:35;;;;;;;19.23;12.70;;;;;;;26.75;27.25;102054.75;4897114;28;113951;-72
2021/03/31 11:26:13;;;;;;;21.52;11.63;;;;;;;26.98;26.65;102039.78;4897556;28;116364;-73
2021/03/31 11:28:42;;;;;;;19.45;12.73;;;;;;;27.07;26.76;102048.06;4913016;28;115382;-73
2021/03/31 11:31:10;;;;;;;17.50;11.70;;;;;;;27.12;26.11;102034.88;4913958;28;123833;-72
2021/03/31 11:33:37;;;;;;;16.45;11.48;;;;;;;27.23;26.01;102031.97;4913148;28;124111;-71
2021/03/31 11:36:05;;;;;;;14.25;11.02;;;;;;;27.33;25.57;102032.81;4912056;28;115391;-72
2021/03/31 11:38:31;;;;;;;19.88;12.35;;;;;;;27.45;25.00;102029.91;4894879;28;113138;-72
2021/03/31 11:40:58;;;;;;;18.92;12.15;;;;;;;27.54;25.18;102032.56;4888130;28;123230;-72
2021/03/31 11:43:24;;;;;;;16.13;12.40;;;;;;;27.64;25.06;102027.06;4894563;28;123746;-72
2021/03/31 11:45:52;;;;;;;16.63;12.25;;;;;;;27.73;24.70;102023.44;4895768;28;113222;-73